sensor_id;sensor_type;location;lat;lon;timestamp;temperature;humidity
16767;DHT22;8501;49.926;8.404;2023-04-03T00:02:11;6.30;99.90
16767;DHT22;8501;49.926;8.404;2023-04-03T00:04:36;6.30;99.90
16767;DHT22;8501;49.926;8.404;2023-04-03T00:07:02;6.30;99.90
16767;DHT22;8501;49.926;8.404;2023-04-03T00:09:28;6.30;99.90
16767;DHT22;8501;49.926;8.404;2023-04-03T00:11:53;6.30;99.90
16767;DHT22;8501;49.926;8.404;2023-04-03T00:14:19;6.30;99.90
16767;DHT22;8501;49.926;8.404;2023-04-03T00:16:45;6.20;99.90
16767;DHT22;8501;49.926;8.404;2023-04-03T00:19:10;6.30;99.90
16767;DHT22;8501;49.926;8.404;2023-04-03T00:21:37;6.30;99.90
16767;DHT22;8501;49.926;8.404;2023-04-03T00:24:03;6.30;99.90
16767;DHT22;8501;49.926;8.404;2023-04-03T00:26:28;6.30;99.90
16767;DHT22;8501;49.926;8.404;2023-04-03T00:28:54;6.30;99.90
16767;DHT22;8501;49.926;8.404;2023-04-03T00:31:19;6.30;99.90
16767;DHT22;8501;49.926;8.404;2023-04-03T00:33:45;6.30;99.90
16767;DHT22;8501;49.926;8.404;2023-04-03T00:36:12;6.30;99.90
16767;DHT22;8501;49.926;8.404;2023-04-03T00:38:38;6.30;99.90
16767;DHT22;8501;49.926;8.404;2023-04-03T00:41:04;6.30;99.90
16767;DHT22;8501;49.926;8.404;2023-04-03T00:43:30;6.30;99.90
16767;DHT22;8501;49.926;8.404;2023-04-03T00:45:56;6.30;99.90
16767;DHT22;8501;49.926;8.404;2023-04-03T00:48:29;6.20;99.90
16767;DHT22;8501;49.926;8.404;2023-04-03T00:50:57;6.30;99.90
16767;DHT22;8501;49.926;8.404;2023-04-03T00:53:27;6.30;99.90
16767;DHT22;8501;49.926;8.404;2023-04-03T00:55:56;6.30;99.90
16767;DHT22;8501;49.926;8.404;2023-04-03T00:58:30;6.30;99.90
16767;DHT22;8501;49.926;8.404;2023-04-03T01:00:58;6.30;99.90
16767;DHT22;8501;49.926;8.404;2023-04-03T01:03:24;6.30;99.90
16767;DHT22;8501;49.926;8.404;2023-04-03T01:05:50;6.30;99.90
16767;DHT22;8501;49.926;8.404;2023-04-03T01:08:16;6.20;99.90
16767;DHT22;8501;49.926;8.404;2023-04-03T01:10:42;6.30;99.90
16767;DHT22;8501;49.926;8.404;2023-04-03T01:13:27;6.30;99.90
16767;DHT22;8501;49.926;8.404;2023-04-03T01:15:52;6.30;99.90
16767;DHT22;8501;49.926;8.404;2023-04-03T01:18:18;6.30;99.90
16767;DHT22;8501;49.926;8.404;2023-04-03T01:23:27;6.30;99.90
16767;DHT22;8501;49.926;8.404;2023-04-03T01:25:56;6.20;99.90
16767;DHT22;8501;49.926;8.404;2023-04-03T01:28:34;6.30;99.90
16767;DHT22;8501;49.926;8.404;2023-04-03T01:33:42;6.30;99.90
16767;DHT22;8501;49.926;8.404;2023-04-03T01:36:13;6.30;99.90
16767;DHT22;8501;49.926;8.404;2023-04-03T01:38:39;6.30;99.90
16767;DHT22;8501;49.926;8.404;2023-04-03T01:41:05;6.30;99.90
16767;DHT22;8501;49.926;8.404;2023-04-03T01:43:31;6.30;99.90
16767;DHT22;8501;49.926;8.404;2023-04-03T01:45:57;6.30;99.90
16767;DHT22;8501;49.926;8.404;2023-04-03T01:48:22;6.30;99.90
16767;DHT22;8501;49.926;8.404;2023-04-03T01:50:48;6.30;99.90
16767;DHT22;8501;49.926;8.404;2023-04-03T01:53:13;6.30;99.90
16767;DHT22;8501;49.926;8.404;2023-04-03T01:55:39;6.30;99.90
16767;DHT22;8501;49.926;8.404;2023-04-03T01:58:05;6.20;99.90
16767;DHT22;8501;49.926;8.404;2023-04-03T02:00:30;6.20;99.90
16767;DHT22;8501;49.926;8.404;2023-04-03T02:02:56;6.30;99.90
16767;DHT22;8501;49.926;8.404;2023-04-03T02:05:22;6.30;99.90
16767;DHT22;8501;49.926;8.404;2023-04-03T02:07:47;6.30;99.90
16767;DHT22;8501;49.926;8.404;2023-04-03T02:10:14;6.30;99.90
16767;DHT22;8501;49.926;8.404;2023-04-03T02:12:39;6.30;99.90
16767;DHT22;8501;49.926;8.404;2023-04-03T02:15:06;6.30;99.90
16767;DHT22;8501;49.926;8.404;2023-04-03T02:17:32;6.30;99.90
16767;DHT22;8501;49.926;8.404;2023-04-03T02:19:57;6.30;99.90
16767;DHT22;8501;49.926;8.404;2023-04-03T02:22:23;6.30;99.90
16767;DHT22;8501;49.926;8.404;2023-04-03T02:24:49;6.30;99.90
16767;DHT22;8501;49.926;8.404;2023-04-03T02:27:14;6.20;99.90
16767;DHT22;8501;49.926;8.404;2023-04-03T02:29:41;6.30;99.90
16767;DHT22;8501;49.926;8.404;2023-04-03T02:32:06;6.30;99.90
16767;DHT22;8501;49.926;8.404;2023-04-03T02:34:32;6.30;99.90
16767;DHT22;8501;49.926;8.404;2023-04-03T02:36:57;6.20;99.90
16767;DHT22;8501;49.926;8.404;2023-04-03T02:39:23;6.30;99.90
16767;DHT22;8501;49.926;8.404;2023-04-03T02:41:50;6.30;99.90
16767;DHT22;8501;49.926;8.404;2023-04-03T02:44:15;6.20;99.90
16767;DHT22;8501;49.926;8.404;2023-04-03T02:46:41;6.20;99.90
16767;DHT22;8501;49.926;8.404;2023-04-03T02:49:06;6.20;99.90
16767;DHT22;8501;49.926;8.404;2023-04-03T02:51:32;6.20;99.90
16767;DHT22;8501;49.926;8.404;2023-04-03T02:53:58;6.20;99.90
16767;DHT22;8501;49.926;8.404;2023-04-03T02:56:24;6.20;99.90
16767;DHT22;8501;49.926;8.404;2023-04-03T02:58:49;6.20;99.90
16767;DHT22;8501;49.926;8.404;2023-04-03T03:01:15;6.20;99.90
16767;DHT22;8501;49.926;8.404;2023-04-03T03:03:41;6.20;99.90
16767;DHT22;8501;49.926;8.404;2023-04-03T03:06:11;6.20;99.90
16767;DHT22;8501;49.926;8.404;2023-04-03T03:08:37;6.10;99.90
16767;DHT22;8501;49.926;8.404;2023-04-03T03:11:03;6.10;99.90
16767;DHT22;8501;49.926;8.404;2023-04-03T03:13:30;6.10;99.90
16767;DHT22;8501;49.926;8.404;2023-04-03T03:15:55;6.10;99.90
16767;DHT22;8501;49.926;8.404;2023-04-03T03:18:21;6.20;99.90
16767;DHT22;8501;49.926;8.404;2023-04-03T03:20:51;6.20;99.90
16767;DHT22;8501;49.926;8.404;2023-04-03T03:23:18;6.10;99.90
16767;DHT22;8501;49.926;8.404;2023-04-03T03:25:43;6.10;99.90
16767;DHT22;8501;49.926;8.404;2023-04-03T03:28:09;6.20;99.90
16767;DHT22;8501;49.926;8.404;2023-04-03T03:30:35;6.10;99.90
16767;DHT22;8501;49.926;8.404;2023-04-03T03:33:02;6.10;99.90
16767;DHT22;8501;49.926;8.404;2023-04-03T03:35:28;6.20;99.90
16767;DHT22;8501;49.926;8.404;2023-04-03T03:37:54;6.10;99.90
16767;DHT22;8501;49.926;8.404;2023-04-03T03:40:20;6.10;99.90
16767;DHT22;8501;49.926;8.404;2023-04-03T03:42:46;6.10;99.90
16767;DHT22;8501;49.926;8.404;2023-04-03T03:45:11;6.10;99.90
16767;DHT22;8501;49.926;8.404;2023-04-03T03:47:37;6.10;99.90
16767;DHT22;8501;49.926;8.404;2023-04-03T03:50:03;6.10;99.90
16767;DHT22;8501;49.926;8.404;2023-04-03T03:52:28;6.10;99.90
16767;DHT22;8501;49.926;8.404;2023-04-03T03:54:55;6.00;99.90
16767;DHT22;8501;49.926;8.404;2023-04-03T03:57:21;6.00;99.90
16767;DHT22;8501;49.926;8.404;2023-04-03T03:59:46;6.00;99.90
16767;DHT22;8501;49.926;8.404;2023-04-03T04:02:14;6.10;99.90
16767;DHT22;8501;49.926;8.404;2023-04-03T04:04:39;6.10;99.90
16767;DHT22;8501;49.926;8.404;2023-04-03T04:07:05;6.10;99.90
16767;DHT22;8501;49.926;8.404;2023-04-03T04:09:31;6.10;99.90
16767;DHT22;8501;49.926;8.404;2023-04-03T04:11:56;6.10;99.90
16767;DHT22;8501;49.926;8.404;2023-04-03T04:14:22;6.00;99.90
16767;DHT22;8501;49.926;8.404;2023-04-03T04:16:48;6.00;99.90
16767;DHT22;8501;49.926;8.404;2023-04-03T04:19:14;6.00;99.90
16767;DHT22;8501;49.926;8.404;2023-04-03T04:21:39;6.00;99.90
16767;DHT22;8501;49.926;8.404;2023-04-03T04:24:07;6.10;99.90
16767;DHT22;8501;49.926;8.404;2023-04-03T04:26:32;6.00;99.90
16767;DHT22;8501;49.926;8.404;2023-04-03T04:28:58;6.00;99.90
16767;DHT22;8501;49.926;8.404;2023-04-03T04:31:24;6.00;99.90
16767;DHT22;8501;49.926;8.404;2023-04-03T04:33:49;6.00;99.90
16767;DHT22;8501;49.926;8.404;2023-04-03T04:36:15;5.90;99.90
16767;DHT22;8501;49.926;8.404;2023-04-03T04:38:41;6.00;99.90
16767;DHT22;8501;49.926;8.404;2023-04-03T04:41:07;6.00;99.90
16767;DHT22;8501;49.926;8.404;2023-04-03T04:43:33;5.90;99.90
16767;DHT22;8501;49.926;8.404;2023-04-03T04:46:07;5.90;99.90
16767;DHT22;8501;49.926;8.404;2023-04-03T04:48:33;5.90;99.90
16767;DHT22;8501;49.926;8.404;2023-04-03T04:50:59;5.80;99.90
16767;DHT22;8501;49.926;8.404;2023-04-03T04:53:25;5.80;99.90
16767;DHT22;8501;49.926;8.404;2023-04-03T04:55:51;5.80;99.90
16767;DHT22;8501;49.926;8.404;2023-04-03T04:58:17;5.80;99.90
16767;DHT22;8501;49.926;8.404;2023-04-03T05:00:42;5.70;99.90
16767;DHT22;8501;49.926;8.404;2023-04-03T05:03:08;5.70;99.90
16767;DHT22;8501;49.926;8.404;2023-04-03T05:05:33;5.70;99.90
16767;DHT22;8501;49.926;8.404;2023-04-03T05:07:59;5.60;99.90
16767;DHT22;8501;49.926;8.404;2023-04-03T05:10:24;5.60;99.90
16767;DHT22;8501;49.926;8.404;2023-04-03T05:12:50;5.60;99.90
16767;DHT22;8501;49.926;8.404;2023-04-03T05:15:17;5.60;99.90
16767;DHT22;8501;49.926;8.404;2023-04-03T05:17:43;5.50;99.90
16767;DHT22;8501;49.926;8.404;2023-04-03T05:20:09;5.60;99.90
16767;DHT22;8501;49.926;8.404;2023-04-03T05:22:35;5.50;99.90
16767;DHT22;8501;49.926;8.404;2023-04-03T05:25:00;5.50;99.90
16767;DHT22;8501;49.926;8.404;2023-04-03T05:27:26;5.50;99.90
16767;DHT22;8501;49.926;8.404;2023-04-03T05:29:54;5.50;99.90
16767;DHT22;8501;49.926;8.404;2023-04-03T05:32:20;5.40;99.90
16767;DHT22;8501;49.926;8.404;2023-04-03T05:34:46;5.40;99.90
16767;DHT22;8501;49.926;8.404;2023-04-03T05:37:11;5.40;99.90
16767;DHT22;8501;49.926;8.404;2023-04-03T05:39:37;5.50;99.90
16767;DHT22;8501;49.926;8.404;2023-04-03T05:42:06;5.50;99.90
16767;DHT22;8501;49.926;8.404;2023-04-03T05:44:31;5.50;99.90
16767;DHT22;8501;49.926;8.404;2023-04-03T05:46:57;5.40;99.90
16767;DHT22;8501;49.926;8.404;2023-04-03T05:49:22;5.40;99.90
16767;DHT22;8501;49.926;8.404;2023-04-03T05:51:48;5.40;99.90
16767;DHT22;8501;49.926;8.404;2023-04-03T05:54:34;5.40;99.90
16767;DHT22;8501;49.926;8.404;2023-04-03T05:56:59;5.40;99.90
16767;DHT22;8501;49.926;8.404;2023-04-03T05:59:25;5.30;99.90
16767;DHT22;8501;49.926;8.404;2023-04-03T06:01:51;5.30;99.90
16767;DHT22;8501;49.926;8.404;2023-04-03T06:04:17;5.30;99.90
16767;DHT22;8501;49.926;8.404;2023-04-03T06:06:57;5.40;99.90
16767;DHT22;8501;49.926;8.404;2023-04-03T06:09:25;5.30;99.90
16767;DHT22;8501;49.926;8.404;2023-04-03T06:11:51;5.30;99.90
16767;DHT22;8501;49.926;8.404;2023-04-03T06:14:17;5.40;99.90
16767;DHT22;8501;49.926;8.404;2023-04-03T06:16:43;5.40;99.90
16767;DHT22;8501;49.926;8.404;2023-04-03T06:19:11;5.40;99.90
16767;DHT22;8501;49.926;8.404;2023-04-03T06:21:37;5.40;99.90
16767;DHT22;8501;49.926;8.404;2023-04-03T06:24:06;5.50;99.90
16767;DHT22;8501;49.926;8.404;2023-04-03T06:26:33;5.50;99.90
16767;DHT22;8501;49.926;8.404;2023-04-03T06:28:59;5.50;99.90
16767;DHT22;8501;49.926;8.404;2023-04-03T06:31:25;5.50;99.90
16767;DHT22;8501;49.926;8.404;2023-04-03T06:33:50;5.50;99.90
16767;DHT22;8501;49.926;8.404;2023-04-03T06:36:18;5.70;99.90
16767;DHT22;8501;49.926;8.404;2023-04-03T06:38:46;5.50;99.90
16767;DHT22;8501;49.926;8.404;2023-04-03T06:41:11;5.50;99.90
16767;DHT22;8501;49.926;8.404;2023-04-03T06:43:37;5.70;99.90
16767;DHT22;8501;49.926;8.404;2023-04-03T06:46:03;5.70;99.90
16767;DHT22;8501;49.926;8.404;2023-04-03T06:48:29;5.80;99.90
16767;DHT22;8501;49.926;8.404;2023-04-03T06:50:55;5.80;99.90
16767;DHT22;8501;49.926;8.404;2023-04-03T06:53:20;5.90;99.90
16767;DHT22;8501;49.926;8.404;2023-04-03T06:55:46;5.90;99.90
16767;DHT22;8501;49.926;8.404;2023-04-03T06:58:13;6.00;99.90
16767;DHT22;8501;49.926;8.404;2023-04-03T07:00:40;6.00;99.90
16767;DHT22;8501;49.926;8.404;2023-04-03T07:03:06;6.00;99.90
16767;DHT22;8501;49.926;8.404;2023-04-03T07:05:32;6.00;99.90
16767;DHT22;8501;49.926;8.404;2023-04-03T07:07:57;6.10;99.90
16767;DHT22;8501;49.926;8.404;2023-04-03T07:10:23;6.10;99.90
16767;DHT22;8501;49.926;8.404;2023-04-03T07:12:48;6.20;99.90
16767;DHT22;8501;49.926;8.404;2023-04-03T07:15:14;6.30;99.90
16767;DHT22;8501;49.926;8.404;2023-04-03T07:17:40;6.30;99.90
16767;DHT22;8501;49.926;8.404;2023-04-03T07:20:06;6.30;99.90
16767;DHT22;8501;49.926;8.404;2023-04-03T07:22:32;6.30;99.90
16767;DHT22;8501;49.926;8.404;2023-04-03T07:24:58;6.40;99.90
16767;DHT22;8501;49.926;8.404;2023-04-03T07:27:24;6.50;99.90
16767;DHT22;8501;49.926;8.404;2023-04-03T07:29:50;6.50;99.90
16767;DHT22;8501;49.926;8.404;2023-04-03T07:32:16;6.60;99.90
16767;DHT22;8501;49.926;8.404;2023-04-03T07:34:43;6.40;99.90
16767;DHT22;8501;49.926;8.404;2023-04-03T07:37:08;6.40;99.90
16767;DHT22;8501;49.926;8.404;2023-04-03T07:39:34;6.50;99.90
16767;DHT22;8501;49.926;8.404;2023-04-03T07:42:00;6.60;99.90
16767;DHT22;8501;49.926;8.404;2023-04-03T07:44:26;6.60;99.90
16767;DHT22;8501;49.926;8.404;2023-04-03T07:46:51;6.70;99.90
16767;DHT22;8501;49.926;8.404;2023-04-03T07:49:17;6.70;99.90
16767;DHT22;8501;49.926;8.404;2023-04-03T07:51:48;6.70;99.90
16767;DHT22;8501;49.926;8.404;2023-04-03T07:54:14;6.80;99.90
16767;DHT22;8501;49.926;8.404;2023-04-03T07:56:40;6.80;99.90
16767;DHT22;8501;49.926;8.404;2023-04-03T07:59:08;6.80;99.90
16767;DHT22;8501;49.926;8.404;2023-04-03T08:01:33;6.80;99.90
16767;DHT22;8501;49.926;8.404;2023-04-03T08:03:59;6.90;99.90
16767;DHT22;8501;49.926;8.404;2023-04-03T08:06:25;6.90;99.90
16767;DHT22;8501;49.926;8.404;2023-04-03T08:08:51;6.90;99.90
16767;DHT22;8501;49.926;8.404;2023-04-03T08:11:17;7.00;99.90
16767;DHT22;8501;49.926;8.404;2023-04-03T08:13:44;7.00;99.90
16767;DHT22;8501;49.926;8.404;2023-04-03T08:16:12;7.20;99.90
16767;DHT22;8501;49.926;8.404;2023-04-03T08:18:38;7.20;99.90
16767;DHT22;8501;49.926;8.404;2023-04-03T08:21:06;7.20;99.90
16767;DHT22;8501;49.926;8.404;2023-04-03T08:23:32;7.30;99.90
16767;DHT22;8501;49.926;8.404;2023-04-03T08:25:57;7.40;99.90
16767;DHT22;8501;49.926;8.404;2023-04-03T08:28:23;7.50;99.90
16767;DHT22;8501;49.926;8.404;2023-04-03T08:30:49;7.50;99.90
16767;DHT22;8501;49.926;8.404;2023-04-03T08:33:14;7.50;99.90
16767;DHT22;8501;49.926;8.404;2023-04-03T08:35:41;7.60;99.90
16767;DHT22;8501;49.926;8.404;2023-04-03T08:38:08;7.60;99.90
16767;DHT22;8501;49.926;8.404;2023-04-03T08:40:34;7.60;99.90
16767;DHT22;8501;49.926;8.404;2023-04-03T08:45:57;7.70;99.90
16767;DHT22;8501;49.926;8.404;2023-04-03T08:48:37;7.80;99.90
16767;DHT22;8501;49.926;8.404;2023-04-03T08:51:13;8.10;99.90
16767;DHT22;8501;49.926;8.404;2023-04-03T08:53:54;7.90;99.90
16767;DHT22;8501;49.926;8.404;2023-04-03T08:56:23;8.00;99.90
16767;DHT22;8501;49.926;8.404;2023-04-03T08:58:57;8.00;99.90
16767;DHT22;8501;49.926;8.404;2023-04-03T09:01:27;7.90;99.90
16767;DHT22;8501;49.926;8.404;2023-04-03T09:03:55;8.00;99.90
16767;DHT22;8501;49.926;8.404;2023-04-03T09:06:23;8.10;99.90
16767;DHT22;8501;49.926;8.404;2023-04-03T09:09:00;8.00;99.90
16767;DHT22;8501;49.926;8.404;2023-04-03T09:16:56;7.90;99.90
16767;DHT22;8501;49.926;8.404;2023-04-03T09:22:27;7.80;99.90
16767;DHT22;8501;49.926;8.404;2023-04-03T09:27:24;7.60;99.90
16767;DHT22;8501;49.926;8.404;2023-04-03T09:29:53;7.70;99.90
16767;DHT22;8501;49.926;8.404;2023-04-03T09:32:30;7.50;99.90
16767;DHT22;8501;49.926;8.404;2023-04-03T09:37:54;7.50;99.90
16767;DHT22;8501;49.926;8.404;2023-04-03T09:40:37;7.60;99.90
16767;DHT22;8501;49.926;8.404;2023-04-03T09:43:25;7.70;99.90
16767;DHT22;8501;49.926;8.404;2023-04-03T09:45:52;7.80;99.90
16767;DHT22;8501;49.926;8.404;2023-04-03T09:48:21;7.90;99.90
16767;DHT22;8501;49.926;8.404;2023-04-03T09:53:37;8.10;99.90
16767;DHT22;8501;49.926;8.404;2023-04-03T09:56:21;8.30;99.90
16767;DHT22;8501;49.926;8.404;2023-04-03T10:01:34;8.50;99.90
16767;DHT22;8501;49.926;8.404;2023-04-03T10:04:16;8.40;99.90
16767;DHT22;8501;49.926;8.404;2023-04-03T10:06:48;8.40;99.90
16767;DHT22;8501;49.926;8.404;2023-04-03T10:09:25;8.40;99.90
16767;DHT22;8501;49.926;8.404;2023-04-03T10:14:25;8.30;99.90
16767;DHT22;8501;49.926;8.404;2023-04-03T10:19:52;8.50;99.90
16767;DHT22;8501;49.926;8.404;2023-04-03T10:28:04;8.30;99.90
16767;DHT22;8501;49.926;8.404;2023-04-03T10:30:35;8.40;99.90
16767;DHT22;8501;49.926;8.404;2023-04-03T10:33:44;8.60;99.90
16767;DHT22;8501;49.926;8.404;2023-04-03T10:44:50;8.60;99.90
16767;DHT22;8501;49.926;8.404;2023-04-03T10:47:20;8.70;99.90
16767;DHT22;8501;49.926;8.404;2023-04-03T10:52:52;8.80;99.90
16767;DHT22;8501;49.926;8.404;2023-04-03T10:55:24;8.80;99.90
16767;DHT22;8501;49.926;8.404;2023-04-03T10:57:54;8.80;99.90
16767;DHT22;8501;49.926;8.404;2023-04-03T11:00:25;8.90;99.90
16767;DHT22;8501;49.926;8.404;2023-04-03T11:02:58;9.00;99.90
16767;DHT22;8501;49.926;8.404;2023-04-03T11:05:34;9.10;99.90
16767;DHT22;8501;49.926;8.404;2023-04-03T11:08:27;9.10;99.90
16767;DHT22;8501;49.926;8.404;2023-04-03T11:10:53;9.10;99.90
16767;DHT22;8501;49.926;8.404;2023-04-03T11:13:49;9.20;99.90
16767;DHT22;8501;49.926;8.404;2023-04-03T11:16:24;9.20;99.90
16767;DHT22;8501;49.926;8.404;2023-04-03T11:18:56;9.20;99.90
16767;DHT22;8501;49.926;8.404;2023-04-03T11:21:39;9.20;99.90
16767;DHT22;8501;49.926;8.404;2023-04-03T11:24:17;9.20;99.90
16767;DHT22;8501;49.926;8.404;2023-04-03T11:26:46;9.20;99.90
16767;DHT22;8501;49.926;8.404;2023-04-03T11:29:18;9.10;99.90
16767;DHT22;8501;49.926;8.404;2023-04-03T11:32:09;9.00;99.90
16767;DHT22;8501;49.926;8.404;2023-04-03T11:34:45;9.10;99.90
16767;DHT22;8501;49.926;8.404;2023-04-03T11:37:39;9.20;99.90
16767;DHT22;8501;49.926;8.404;2023-04-03T11:42:42;9.20;99.90
16767;DHT22;8501;49.926;8.404;2023-04-03T11:48:03;9.30;99.90
16767;DHT22;8501;49.926;8.404;2023-04-03T11:50:41;9.40;99.90
16767;DHT22;8501;49.926;8.404;2023-04-03T12:13:37;9.50;99.90
16767;DHT22;8501;49.926;8.404;2023-04-03T12:16:05;9.60;99.90
16767;DHT22;8501;49.926;8.404;2023-04-03T12:18:41;9.70;99.90
16767;DHT22;8501;49.926;8.404;2023-04-03T12:21:08;9.80;99.90
16767;DHT22;8501;49.926;8.404;2023-04-03T12:23:36;9.90;99.90
16767;DHT22;8501;49.926;8.404;2023-04-03T12:26:25;10.00;99.90
16767;DHT22;8501;49.926;8.404;2023-04-03T12:28:51;9.80;99.90
16767;DHT22;8501;49.926;8.404;2023-04-03T12:31:19;9.70;99.90
16767;DHT22;8501;49.926;8.404;2023-04-03T12:33:59;9.70;99.90
16767;DHT22;8501;49.926;8.404;2023-04-03T12:36:39;9.70;99.90
16767;DHT22;8501;49.926;8.404;2023-04-03T12:39:33;9.70;99.90
16767;DHT22;8501;49.926;8.404;2023-04-03T12:42:21;9.60;99.90
16767;DHT22;8501;49.926;8.404;2023-04-03T12:45:06;9.70;99.90
16767;DHT22;8501;49.926;8.404;2023-04-03T12:47:36;9.80;99.90
16767;DHT22;8501;49.926;8.404;2023-04-03T12:50:16;9.70;99.90
16767;DHT22;8501;49.926;8.404;2023-04-03T12:52:45;9.80;99.90
16767;DHT22;8501;49.926;8.404;2023-04-03T12:55:17;10.00;99.90
16767;DHT22;8501;49.926;8.404;2023-04-03T12:57:44;10.10;99.90
16767;DHT22;8501;49.926;8.404;2023-04-03T13:00:39;10.40;99.90
16767;DHT22;8501;49.926;8.404;2023-04-03T13:03:06;10.30;99.90
16767;DHT22;8501;49.926;8.404;2023-04-03T13:05:44;10.10;99.90
16767;DHT22;8501;49.926;8.404;2023-04-03T13:08:12;10.10;99.90
16767;DHT22;8501;49.926;8.404;2023-04-03T13:13:17;10.50;99.90
16767;DHT22;8501;49.926;8.404;2023-04-03T13:15:45;10.50;99.90
16767;DHT22;8501;49.926;8.404;2023-04-03T13:18:32;10.50;99.90
16767;DHT22;8501;49.926;8.404;2023-04-03T13:21:05;10.60;99.90
16767;DHT22;8501;49.926;8.404;2023-04-03T13:23:32;10.70;99.90
16767;DHT22;8501;49.926;8.404;2023-04-03T13:26:00;10.60;99.90
16767;DHT22;8501;49.926;8.404;2023-04-03T13:28:29;10.60;99.90
16767;DHT22;8501;49.926;8.404;2023-04-03T13:33:43;10.80;99.90
16767;DHT22;8501;49.926;8.404;2023-04-03T13:36:20;10.80;99.90
16767;DHT22;8501;49.926;8.404;2023-04-03T13:39:03;10.80;99.90
16767;DHT22;8501;49.926;8.404;2023-04-03T13:41:40;10.90;99.90
16767;DHT22;8501;49.926;8.404;2023-04-03T13:49:39;11.10;99.90
16767;DHT22;8501;49.926;8.404;2023-04-03T13:52:33;11.20;99.90
16767;DHT22;8501;49.926;8.404;2023-04-03T14:02:59;11.80;99.90
16767;DHT22;8501;49.926;8.404;2023-04-03T14:05:26;11.90;99.90
16767;DHT22;8501;49.926;8.404;2023-04-03T14:07:53;12.10;99.90
16767;DHT22;8501;49.926;8.404;2023-04-03T14:10:20;12.00;99.90
16767;DHT22;8501;49.926;8.404;2023-04-03T14:12:46;12.30;99.90
16767;DHT22;8501;49.926;8.404;2023-04-03T14:17:44;12.80;99.90
16767;DHT22;8501;49.926;8.404;2023-04-03T14:20:18;13.00;98.90
16767;DHT22;8501;49.926;8.404;2023-04-03T14:22:44;13.30;97.60
16767;DHT22;8501;49.926;8.404;2023-04-03T14:25:10;13.50;98.30
16767;DHT22;8501;49.926;8.404;2023-04-03T14:27:41;13.80;97.10
16767;DHT22;8501;49.926;8.404;2023-04-03T14:30:14;14.20;96.50
16767;DHT22;8501;49.926;8.404;2023-04-03T14:32:41;14.10;95.30
16767;DHT22;8501;49.926;8.404;2023-04-03T14:35:06;14.30;94.60
16767;DHT22;8501;49.926;8.404;2023-04-03T14:37:32;14.60;93.60
16767;DHT22;8501;49.926;8.404;2023-04-03T14:40:00;14.70;93.60
16767;DHT22;8501;49.926;8.404;2023-04-03T14:42:30;15.10;93.30
16767;DHT22;8501;49.926;8.404;2023-04-03T14:44:58;15.30;91.90
16767;DHT22;8501;49.926;8.404;2023-04-03T14:47:26;15.20;90.10
16767;DHT22;8501;49.926;8.404;2023-04-03T14:49:53;15.30;90.40
16767;DHT22;8501;49.926;8.404;2023-04-03T14:52:25;15.70;90.00
16767;DHT22;8501;49.926;8.404;2023-04-03T14:54:52;16.00;90.00
16767;DHT22;8501;49.926;8.404;2023-04-03T14:57:18;15.70;86.10
16767;DHT22;8501;49.926;8.404;2023-04-03T14:59:45;15.70;86.70
16767;DHT22;8501;49.926;8.404;2023-04-03T15:04:54;15.90;83.90
16767;DHT22;8501;49.926;8.404;2023-04-03T15:07:19;15.70;84.20
16767;DHT22;8501;49.926;8.404;2023-04-03T15:09:45;15.60;83.10
16767;DHT22;8501;49.926;8.404;2023-04-03T15:12:11;15.60;83.40
16767;DHT22;8501;49.926;8.404;2023-04-03T15:14:36;15.60;83.20
16767;DHT22;8501;49.926;8.404;2023-04-03T15:17:02;15.50;82.80
16767;DHT22;8501;49.926;8.404;2023-04-03T15:19:30;15.30;83.40
16767;DHT22;8501;49.926;8.404;2023-04-03T15:21:56;14.90;83.30
16767;DHT22;8501;49.926;8.404;2023-04-03T15:24:22;14.60;84.10
16767;DHT22;8501;49.926;8.404;2023-04-03T15:26:47;14.30;85.60
16767;DHT22;8501;49.926;8.404;2023-04-03T15:29:13;13.90;84.70
16767;DHT22;8501;49.926;8.404;2023-04-03T15:31:38;13.40;86.70
16767;DHT22;8501;49.926;8.404;2023-04-03T15:34:04;12.90;87.70
16767;DHT22;8501;49.926;8.404;2023-04-03T15:36:29;12.60;89.20
16767;DHT22;8501;49.926;8.404;2023-04-03T15:38:55;12.50;89.00
16767;DHT22;8501;49.926;8.404;2023-04-03T15:41:20;12.40;89.80
16767;DHT22;8501;49.926;8.404;2023-04-03T15:43:46;12.00;89.10
16767;DHT22;8501;49.926;8.404;2023-04-03T15:46:12;11.90;89.90
16767;DHT22;8501;49.926;8.404;2023-04-03T15:48:38;11.80;90.50
16767;DHT22;8501;49.926;8.404;2023-04-03T15:51:05;11.80;90.90
16767;DHT22;8501;49.926;8.404;2023-04-03T15:53:31;11.60;90.70
16767;DHT22;8501;49.926;8.404;2023-04-03T15:55:56;11.60;91.20
16767;DHT22;8501;49.926;8.404;2023-04-03T15:58:22;11.40;91.10
16767;DHT22;8501;49.926;8.404;2023-04-03T16:00:48;11.30;91.60
16767;DHT22;8501;49.926;8.404;2023-04-03T16:03:18;11.20;91.80
16767;DHT22;8501;49.926;8.404;2023-04-03T16:05:45;11.30;92.40
16767;DHT22;8501;49.926;8.404;2023-04-03T16:08:11;11.30;91.90
16767;DHT22;8501;49.926;8.404;2023-04-03T16:10:37;11.30;91.90
16767;DHT22;8501;49.926;8.404;2023-04-03T16:13:03;11.20;92.50
16767;DHT22;8501;49.926;8.404;2023-04-03T16:15:30;11.10;91.90
16767;DHT22;8501;49.926;8.404;2023-04-03T16:17:56;11.00;92.40
16767;DHT22;8501;49.926;8.404;2023-04-03T16:20:22;10.90;92.50
16767;DHT22;8501;49.926;8.404;2023-04-03T16:22:48;10.90;92.40
16767;DHT22;8501;49.926;8.404;2023-04-03T16:25:14;10.80;92.30
16767;DHT22;8501;49.926;8.404;2023-04-03T16:27:40;10.80;92.20
16767;DHT22;8501;49.926;8.404;2023-04-03T16:30:06;10.70;92.40
16767;DHT22;8501;49.926;8.404;2023-04-03T16:32:32;10.80;92.80
16767;DHT22;8501;49.926;8.404;2023-04-03T16:34:59;10.70;92.30
16767;DHT22;8501;49.926;8.404;2023-04-03T16:37:24;10.70;92.50
16767;DHT22;8501;49.926;8.404;2023-04-03T16:39:50;10.50;92.80
16767;DHT22;8501;49.926;8.404;2023-04-03T16:42:16;10.40;93.00
16767;DHT22;8501;49.926;8.404;2023-04-03T16:44:41;10.50;93.30
16767;DHT22;8501;49.926;8.404;2023-04-03T16:47:07;10.50;93.50
16767;DHT22;8501;49.926;8.404;2023-04-03T16:49:34;10.50;93.00
16767;DHT22;8501;49.926;8.404;2023-04-03T16:52:02;10.40;92.90
16767;DHT22;8501;49.926;8.404;2023-04-03T16:54:28;10.40;92.70
16767;DHT22;8501;49.926;8.404;2023-04-03T16:56:54;10.30;93.00
16767;DHT22;8501;49.926;8.404;2023-04-03T16:59:19;10.20;92.90
16767;DHT22;8501;49.926;8.404;2023-04-03T17:01:45;10.20;92.90
16767;DHT22;8501;49.926;8.404;2023-04-03T17:04:10;10.10;92.90
16767;DHT22;8501;49.926;8.404;2023-04-03T17:06:38;10.10;93.70
16767;DHT22;8501;49.926;8.404;2023-04-03T17:09:03;10.10;93.20
16767;DHT22;8501;49.926;8.404;2023-04-03T17:11:30;10.00;93.30
16767;DHT22;8501;49.926;8.404;2023-04-03T17:13:55;9.90;92.90
16767;DHT22;8501;49.926;8.404;2023-04-03T17:16:21;9.90;93.20
16767;DHT22;8501;49.926;8.404;2023-04-03T17:18:47;9.80;93.00
16767;DHT22;8501;49.926;8.404;2023-04-03T17:21:14;9.80;93.30
16767;DHT22;8501;49.926;8.404;2023-04-03T17:23:41;9.70;93.70
16767;DHT22;8501;49.926;8.404;2023-04-03T17:26:08;9.80;94.00
16767;DHT22;8501;49.926;8.404;2023-04-03T17:28:33;9.90;94.30
16767;DHT22;8501;49.926;8.404;2023-04-03T17:31:00;9.80;94.30
16767;DHT22;8501;49.926;8.404;2023-04-03T17:33:27;9.70;94.10
16767;DHT22;8501;49.926;8.404;2023-04-03T17:36:02;9.50;94.30
16767;DHT22;8501;49.926;8.404;2023-04-03T17:38:33;9.60;94.60
16767;DHT22;8501;49.926;8.404;2023-04-03T17:41:00;9.60;94.50
16767;DHT22;8501;49.926;8.404;2023-04-03T17:43:26;9.50;93.90
16767;DHT22;8501;49.926;8.404;2023-04-03T17:45:52;9.40;94.10